sensor_id;sensor_type;location;lat;lon;timestamp;temperature;humidity
28863;DHT22;15994;51.796;13.006;2022-10-26T00:00:49;8.80;99.90
28863;DHT22;15994;51.796;13.006;2022-10-26T00:03:16;8.80;99.90
28863;DHT22;15994;51.796;13.006;2022-10-26T00:05:43;8.70;99.90
28863;DHT22;15994;51.796;13.006;2022-10-26T00:08:11;8.70;99.90
28863;DHT22;15994;51.796;13.006;2022-10-26T00:10:38;8.70;99.90
28863;DHT22;15994;51.796;13.006;2022-10-26T00:13:09;8.60;99.90
28863;DHT22;15994;51.796;13.006;2022-10-26T00:15:39;8.60;99.90
28863;DHT22;15994;51.796;13.006;2022-10-26T00:18:05;8.60;99.90
28863;DHT22;15994;51.796;13.006;2022-10-26T00:20:32;8.50;99.90
28863;DHT22;15994;51.796;13.006;2022-10-26T00:22:58;8.50;99.90
28863;DHT22;15994;51.796;13.006;2022-10-26T00:25:25;8.50;99.90
28863;DHT22;15994;51.796;13.006;2022-10-26T00:27:52;8.50;99.90
28863;DHT22;15994;51.796;13.006;2022-10-26T00:30:18;8.50;99.90
28863;DHT22;15994;51.796;13.006;2022-10-26T00:32:45;8.50;99.90
28863;DHT22;15994;51.796;13.006;2022-10-26T00:35:11;8.50;99.90
28863;DHT22;15994;51.796;13.006;2022-10-26T00:37:38;8.50;99.90
28863;DHT22;15994;51.796;13.006;2022-10-26T00:40:05;8.50;99.90
28863;DHT22;15994;51.796;13.006;2022-10-26T00:42:32;8.40;99.90
28863;DHT22;15994;51.796;13.006;2022-10-26T00:45:14;8.40;99.90
28863;DHT22;15994;51.796;13.006;2022-10-26T00:47:46;8.40;99.90
28863;DHT22;15994;51.796;13.006;2022-10-26T00:50:25;8.30;99.90
28863;DHT22;15994;51.796;13.006;2022-10-26T00:52:54;8.30;99.90
28863;DHT22;15994;51.796;13.006;2022-10-26T00:55:26;8.20;99.90
28863;DHT22;15994;51.796;13.006;2022-10-26T00:57:54;8.20;99.90
28863;DHT22;15994;51.796;13.006;2022-10-26T01:00:21;8.20;99.90
28863;DHT22;15994;51.796;13.006;2022-10-26T01:02:49;8.20;99.90
28863;DHT22;15994;51.796;13.006;2022-10-26T01:05:18;8.20;99.90
28863;DHT22;15994;51.796;13.006;2022-10-26T01:07:46;8.20;99.90
28863;DHT22;15994;51.796;13.006;2022-10-26T01:10:13;8.20;99.90
28863;DHT22;15994;51.796;13.006;2022-10-26T01:12:40;8.20;99.90
28863;DHT22;15994;51.796;13.006;2022-10-26T01:15:07;8.10;99.90
28863;DHT22;15994;51.796;13.006;2022-10-26T01:17:55;8.00;99.90
28863;DHT22;15994;51.796;13.006;2022-10-26T01:20:42;8.10;99.90
28863;DHT22;15994;51.796;13.006;2022-10-26T01:23:29;8.00;99.90
28863;DHT22;15994;51.796;13.006;2022-10-26T01:28:50;7.80;99.90
28863;DHT22;15994;51.796;13.006;2022-10-26T01:31:30;7.90;99.90
28863;DHT22;15994;51.796;13.006;2022-10-26T01:34:23;8.00;99.90
28863;DHT22;15994;51.796;13.006;2022-10-26T01:36:54;8.00;99.90
28863;DHT22;15994;51.796;13.006;2022-10-26T01:39:36;7.90;99.90
28863;DHT22;15994;51.796;13.006;2022-10-26T01:42:04;7.90;99.90
28863;DHT22;15994;51.796;13.006;2022-10-26T01:44:37;7.90;99.90
28863;DHT22;15994;51.796;13.006;2022-10-26T01:47:10;7.80;99.90
28863;DHT22;15994;51.796;13.006;2022-10-26T01:49:41;7.80;99.90
28863;DHT22;15994;51.796;13.006;2022-10-26T01:52:09;7.70;99.90
28863;DHT22;15994;51.796;13.006;2022-10-26T01:54:37;7.70;99.90
28863;DHT22;15994;51.796;13.006;2022-10-26T01:57:06;7.70;99.90
28863;DHT22;15994;51.796;13.006;2022-10-26T02:02:30;7.70;99.90
28863;DHT22;15994;51.796;13.006;2022-10-26T02:05:07;7.70;99.90
28863;DHT22;15994;51.796;13.006;2022-10-26T02:11:00;7.80;99.90
28863;DHT22;15994;51.796;13.006;2022-10-26T02:18:37;7.80;99.90
28863;DHT22;15994;51.796;13.006;2022-10-26T02:21:13;7.80;99.90
28863;DHT22;15994;51.796;13.006;2022-10-26T02:23:41;7.70;99.90
28863;DHT22;15994;51.796;13.006;2022-10-26T02:26:11;7.60;99.90
28863;DHT22;15994;51.796;13.006;2022-10-26T02:28:42;7.60;99.90
28863;DHT22;15994;51.796;13.006;2022-10-26T02:31:10;7.60;99.90
28863;DHT22;15994;51.796;13.006;2022-10-26T02:33:42;7.60;99.90
28863;DHT22;15994;51.796;13.006;2022-10-26T02:36:12;7.50;99.90
28863;DHT22;15994;51.796;13.006;2022-10-26T02:38:41;7.60;99.90
28863;DHT22;15994;51.796;13.006;2022-10-26T02:41:10;7.60;99.90
28863;DHT22;15994;51.796;13.006;2022-10-26T02:46:28;7.50;99.90
28863;DHT22;15994;51.796;13.006;2022-10-26T02:48:55;7.60;99.90
28863;DHT22;15994;51.796;13.006;2022-10-26T02:51:37;7.60;99.90
28863;DHT22;15994;51.796;13.006;2022-10-26T02:54:12;7.60;99.90
28863;DHT22;15994;51.796;13.006;2022-10-26T02:56:46;7.30;99.90
28863;DHT22;15994;51.796;13.006;2022-10-26T02:59:14;7.30;99.90
28863;DHT22;15994;51.796;13.006;2022-10-26T03:01:43;7.40;99.90
28863;DHT22;15994;51.796;13.006;2022-10-26T03:04:10;7.40;99.90
28863;DHT22;15994;51.796;13.006;2022-10-26T03:06:37;7.40;99.90
28863;DHT22;15994;51.796;13.006;2022-10-26T03:09:03;7.30;99.90
28863;DHT22;15994;51.796;13.006;2022-10-26T03:11:30;7.40;99.90
28863;DHT22;15994;51.796;13.006;2022-10-26T03:13:56;7.40;99.90
28863;DHT22;15994;51.796;13.006;2022-10-26T03:16:23;7.40;99.90
28863;DHT22;15994;51.796;13.006;2022-10-26T03:18:49;7.30;99.90
28863;DHT22;15994;51.796;13.006;2022-10-26T03:21:16;7.30;99.90
28863;DHT22;15994;51.796;13.006;2022-10-26T03:23:43;7.20;99.90
28863;DHT22;15994;51.796;13.006;2022-10-26T03:26:12;7.20;99.90
28863;DHT22;15994;51.796;13.006;2022-10-26T03:28:38;7.30;99.90
28863;DHT22;15994;51.796;13.006;2022-10-26T03:31:05;7.20;99.90
28863;DHT22;15994;51.796;13.006;2022-10-26T03:33:32;7.10;99.90
28863;DHT22;15994;51.796;13.006;2022-10-26T03:35:58;7.20;99.90
28863;DHT22;15994;51.796;13.006;2022-10-26T03:38:25;7.20;99.90
28863;DHT22;15994;51.796;13.006;2022-10-26T03:40:51;7.20;99.90
28863;DHT22;15994;51.796;13.006;2022-10-26T03:43:18;7.20;99.90
28863;DHT22;15994;51.796;13.006;2022-10-26T03:45:45;7.10;99.90
28863;DHT22;15994;51.796;13.006;2022-10-26T03:48:11;7.10;99.90
28863;DHT22;15994;51.796;13.006;2022-10-26T03:50:38;6.90;99.90
28863;DHT22;15994;51.796;13.006;2022-10-26T03:53:05;6.90;99.90
28863;DHT22;15994;51.796;13.006;2022-10-26T03:55:32;6.90;99.90
28863;DHT22;15994;51.796;13.006;2022-10-26T03:57:58;6.90;99.90
28863;DHT22;15994;51.796;13.006;2022-10-26T04:00:25;6.90;99.90
28863;DHT22;15994;51.796;13.006;2022-10-26T04:02:57;6.90;99.90
28863;DHT22;15994;51.796;13.006;2022-10-26T04:05:25;6.90;99.90
28863;DHT22;15994;51.796;13.006;2022-10-26T04:07:56;6.90;99.90
28863;DHT22;15994;51.796;13.006;2022-10-26T04:10:24;6.90;99.90
28863;DHT22;15994;51.796;13.006;2022-10-26T04:12:52;6.90;99.90
28863;DHT22;15994;51.796;13.006;2022-10-26T04:15:19;6.90;99.90
28863;DHT22;15994;51.796;13.006;2022-10-26T04:17:46;6.90;99.90
28863;DHT22;15994;51.796;13.006;2022-10-26T04:20:13;6.90;99.90
28863;DHT22;15994;51.796;13.006;2022-10-26T04:22:39;6.90;99.90
28863;DHT22;15994;51.796;13.006;2022-10-26T04:25:06;7.00;99.90
28863;DHT22;15994;51.796;13.006;2022-10-26T04:27:34;7.00;99.90
28863;DHT22;15994;51.796;13.006;2022-10-26T04:30:01;7.00;99.90
28863;DHT22;15994;51.796;13.006;2022-10-26T04:32:29;6.90;99.90
28863;DHT22;15994;51.796;13.006;2022-10-26T04:34:56;7.00;99.90
28863;DHT22;15994;51.796;13.006;2022-10-26T04:37:22;7.00;99.90
28863;DHT22;15994;51.796;13.006;2022-10-26T04:39:49;7.00;99.90
28863;DHT22;15994;51.796;13.006;2022-10-26T04:42:16;7.10;99.90
28863;DHT22;15994;51.796;13.006;2022-10-26T04:44:42;7.00;99.90
28863;DHT22;15994;51.796;13.006;2022-10-26T04:47:09;7.00;99.90
28863;DHT22;15994;51.796;13.006;2022-10-26T04:49:35;6.90;99.90
28863;DHT22;15994;51.796;13.006;2022-10-26T04:52:03;6.80;99.90
28863;DHT22;15994;51.796;13.006;2022-10-26T04:54:30;6.90;99.90
28863;DHT22;15994;51.796;13.006;2022-10-26T04:56:56;6.90;99.90
28863;DHT22;15994;51.796;13.006;2022-10-26T04:59:23;6.80;99.90
28863;DHT22;15994;51.796;13.006;2022-10-26T05:01:50;6.90;99.90
28863;DHT22;15994;51.796;13.006;2022-10-26T05:04:16;6.90;99.90
28863;DHT22;15994;51.796;13.006;2022-10-26T05:06:43;6.90;99.90
28863;DHT22;15994;51.796;13.006;2022-10-26T05:09:10;6.90;99.90
28863;DHT22;15994;51.796;13.006;2022-10-26T05:11:36;6.90;99.90
28863;DHT22;15994;51.796;13.006;2022-10-26T05:14:03;6.90;99.90
28863;DHT22;15994;51.796;13.006;2022-10-26T05:16:29;6.90;99.90
28863;DHT22;15994;51.796;13.006;2022-10-26T05:18:56;6.80;99.90
28863;DHT22;15994;51.796;13.006;2022-10-26T05:21:22;6.90;99.90
28863;DHT22;15994;51.796;13.006;2022-10-26T05:23:50;6.90;99.90
28863;DHT22;15994;51.796;13.006;2022-10-26T05:26:20;6.80;99.90
28863;DHT22;15994;51.796;13.006;2022-10-26T05:28:47;6.80;99.90
28863;DHT22;15994;51.796;13.006;2022-10-26T05:31:14;6.70;99.90
28863;DHT22;15994;51.796;13.006;2022-10-26T05:33:40;6.70;99.90
28863;DHT22;15994;51.796;13.006;2022-10-26T05:36:07;6.80;99.90
28863;DHT22;15994;51.796;13.006;2022-10-26T05:38:34;6.70;99.90
28863;DHT22;15994;51.796;13.006;2022-10-26T05:41:00;6.70;99.90
28863;DHT22;15994;51.796;13.006;2022-10-26T05:43:27;6.80;99.90
28863;DHT22;15994;51.796;13.006;2022-10-26T05:45:54;6.80;99.90
28863;DHT22;15994;51.796;13.006;2022-10-26T05:48:21;6.80;99.90
28863;DHT22;15994;51.796;13.006;2022-10-26T05:50:47;6.80;99.90
28863;DHT22;15994;51.796;13.006;2022-10-26T05:53:14;6.80;99.90
28863;DHT22;15994;51.796;13.006;2022-10-26T05:55:41;6.70;99.90
28863;DHT22;15994;51.796;13.006;2022-10-26T05:58:12;6.70;99.90
28863;DHT22;15994;51.796;13.006;2022-10-26T06:01:07;6.70;99.90
28863;DHT22;15994;51.796;13.006;2022-10-26T06:06:39;6.70;99.90
28863;DHT22;15994;51.796;13.006;2022-10-26T06:09:12;6.70;99.90
28863;DHT22;15994;51.796;13.006;2022-10-26T06:11:39;6.80;99.90
28863;DHT22;15994;51.796;13.006;2022-10-26T06:14:07;6.80;99.90
28863;DHT22;15994;51.796;13.006;2022-10-26T06:22:13;6.90;99.90
28863;DHT22;15994;51.796;13.006;2022-10-26T06:25:03;6.90;99.90
28863;DHT22;15994;51.796;13.006;2022-10-26T06:27:58;7.10;99.90
28863;DHT22;15994;51.796;13.006;2022-10-26T06:30:30;7.20;99.90
28863;DHT22;15994;51.796;13.006;2022-10-26T06:32:57;7.30;99.90
28863;DHT22;15994;51.796;13.006;2022-10-26T06:37:56;7.50;99.90
28863;DHT22;15994;51.796;13.006;2022-10-26T06:40:24;7.50;99.90
28863;DHT22;15994;51.796;13.006;2022-10-26T06:42:52;7.60;99.90
28863;DHT22;15994;51.796;13.006;2022-10-26T06:45:19;7.70;99.90
28863;DHT22;15994;51.796;13.006;2022-10-26T06:47:53;7.70;99.90
28863;DHT22;15994;51.796;13.006;2022-10-26T06:50:34;7.70;99.90
28863;DHT22;15994;51.796;13.006;2022-10-26T06:53:39;7.80;99.90
28863;DHT22;15994;51.796;13.006;2022-10-26T06:56:10;7.80;99.90
28863;DHT22;15994;51.796;13.006;2022-10-26T06:58:39;7.80;99.90
28863;DHT22;15994;51.796;13.006;2022-10-26T07:01:10;7.80;99.90
28863;DHT22;15994;51.796;13.006;2022-10-26T07:03:37;7.80;99.90
28863;DHT22;15994;51.796;13.006;2022-10-26T07:06:04;7.90;99.90
28863;DHT22;15994;51.796;13.006;2022-10-26T07:08:31;7.90;99.90
28863;DHT22;15994;51.796;13.006;2022-10-26T07:10:57;8.00;99.90
28863;DHT22;15994;51.796;13.006;2022-10-26T07:13:24;8.10;99.90
28863;DHT22;15994;51.796;13.006;2022-10-26T07:15:51;8.10;99.90
28863;DHT22;15994;51.796;13.006;2022-10-26T07:18:17;8.20;99.90
28863;DHT22;15994;51.796;13.006;2022-10-26T07:20:44;8.30;99.90
28863;DHT22;15994;51.796;13.006;2022-10-26T07:23:10;8.40;99.90
28863;DHT22;15994;51.796;13.006;2022-10-26T07:25:38;8.50;99.90
28863;DHT22;15994;51.796;13.006;2022-10-26T07:28:08;8.50;99.90
28863;DHT22;15994;51.796;13.006;2022-10-26T07:30:36;8.50;99.90
28863;DHT22;15994;51.796;13.006;2022-10-26T07:33:05;8.60;99.90
28863;DHT22;15994;51.796;13.006;2022-10-26T07:35:33;8.50;99.90
28863;DHT22;15994;51.796;13.006;2022-10-26T07:38:00;8.60;99.90
28863;DHT22;15994;51.796;13.006;2022-10-26T07:40:27;8.60;99.90
28863;DHT22;15994;51.796;13.006;2022-10-26T07:42:58;8.60;99.90
28863;DHT22;15994;51.796;13.006;2022-10-26T07:45:26;8.70;99.90
28863;DHT22;15994;51.796;13.006;2022-10-26T07:47:53;8.70;99.90
28863;DHT22;15994;51.796;13.006;2022-10-26T07:50:20;8.80;99.90
28863;DHT22;15994;51.796;13.006;2022-10-26T07:52:47;8.90;99.90
28863;DHT22;15994;51.796;13.006;2022-10-26T07:55:14;9.00;99.90
28863;DHT22;15994;51.796;13.006;2022-10-26T07:57:40;9.10;99.90
28863;DHT22;15994;51.796;13.006;2022-10-26T08:00:08;9.30;99.90
28863;DHT22;15994;51.796;13.006;2022-10-26T08:02:35;9.40;99.90
28863;DHT22;15994;51.796;13.006;2022-10-26T08:05:03;9.50;99.90
28863;DHT22;15994;51.796;13.006;2022-10-26T08:07:29;9.50;99.90
28863;DHT22;15994;51.796;13.006;2022-10-26T08:09:56;9.50;99.90
28863;DHT22;15994;51.796;13.006;2022-10-26T08:12:22;9.70;99.90
28863;DHT22;15994;51.796;13.006;2022-10-26T08:14:49;9.80;99.90
28863;DHT22;15994;51.796;13.006;2022-10-26T08:17:16;9.80;99.90
28863;DHT22;15994;51.796;13.006;2022-10-26T08:19:42;9.90;99.90
28863;DHT22;15994;51.796;13.006;2022-10-26T08:22:09;10.00;99.90
28863;DHT22;15994;51.796;13.006;2022-10-26T08:24:35;10.00;99.90
28863;DHT22;15994;51.796;13.006;2022-10-26T08:27:02;10.00;99.90
28863;DHT22;15994;51.796;13.006;2022-10-26T08:29:28;10.10;99.90
28863;DHT22;15994;51.796;13.006;2022-10-26T08:31:55;10.10;99.90
28863;DHT22;15994;51.796;13.006;2022-10-26T08:34:22;10.20;99.90
28863;DHT22;15994;51.796;13.006;2022-10-26T08:36:48;10.40;99.90
28863;DHT22;15994;51.796;13.006;2022-10-26T08:39:15;10.60;99.90
28863;DHT22;15994;51.796;13.006;2022-10-26T08:41:45;10.60;99.90
28863;DHT22;15994;51.796;13.006;2022-10-26T08:49:57;11.10;99.90
28863;DHT22;15994;51.796;13.006;2022-10-26T08:52:46;11.20;99.90
28863;DHT22;15994;51.796;13.006;2022-10-26T08:55:18;11.30;99.90
28863;DHT22;15994;51.796;13.006;2022-10-26T08:57:46;11.50;99.90
28863;DHT22;15994;51.796;13.006;2022-10-26T09:00:22;11.60;99.90
28863;DHT22;15994;51.796;13.006;2022-10-26T09:02:51;11.70;99.90
28863;DHT22;15994;51.796;13.006;2022-10-26T09:05:27;11.80;99.90
28863;DHT22;15994;51.796;13.006;2022-10-26T09:08:17;11.90;99.90
28863;DHT22;15994;51.796;13.006;2022-10-26T09:11:56;12.00;99.90
28863;DHT22;15994;51.796;13.006;2022-10-26T09:16:27;12.20;99.90
28863;DHT22;15994;51.796;13.006;2022-10-26T09:22:06;12.30;99.90
28863;DHT22;15994;51.796;13.006;2022-10-26T09:24:38;12.40;99.90
28863;DHT22;15994;51.796;13.006;2022-10-26T09:27:20;12.50;99.90
28863;DHT22;15994;51.796;13.006;2022-10-26T09:29:50;12.50;99.90
28863;DHT22;15994;51.796;13.006;2022-10-26T09:32:24;12.60;99.90
28863;DHT22;15994;51.796;13.006;2022-10-26T09:35:03;12.60;99.90
28863;DHT22;15994;51.796;13.006;2022-10-26T09:37:35;12.70;99.90
28863;DHT22;15994;51.796;13.006;2022-10-26T09:40:15;12.80;99.90
28863;DHT22;15994;51.796;13.006;2022-10-26T09:43:00;12.80;99.90
28863;DHT22;15994;51.796;13.006;2022-10-26T09:45:49;12.90;99.90
28863;DHT22;15994;51.796;13.006;2022-10-26T09:50:48;13.10;99.90
28863;DHT22;15994;51.796;13.006;2022-10-26T09:53:16;13.20;99.90
28863;DHT22;15994;51.796;13.006;2022-10-26T09:55:48;13.20;99.90
28863;DHT22;15994;51.796;13.006;2022-10-26T09:58:28;13.30;99.90
28863;DHT22;15994;51.796;13.006;2022-10-26T10:00:55;13.50;99.90
28863;DHT22;15994;51.796;13.006;2022-10-26T10:03:28;13.60;99.90
28863;DHT22;15994;51.796;13.006;2022-10-26T10:06:15;13.70;99.90
28863;DHT22;15994;51.796;13.006;2022-10-26T10:08:41;13.70;99.90
28863;DHT22;15994;51.796;13.006;2022-10-26T10:11:13;13.70;99.90
28863;DHT22;15994;51.796;13.006;2022-10-26T10:13:44;13.80;99.90
28863;DHT22;15994;51.796;13.006;2022-10-26T10:18:40;13.80;99.90
28863;DHT22;15994;51.796;13.006;2022-10-26T10:21:08;13.90;99.90
28863;DHT22;15994;51.796;13.006;2022-10-26T10:23:45;13.90;99.90
28863;DHT22;15994;51.796;13.006;2022-10-26T10:26:13;13.90;99.90
28863;DHT22;15994;51.796;13.006;2022-10-26T10:28:40;14.10;99.90
28863;DHT22;15994;51.796;13.006;2022-10-26T10:31:19;14.20;99.90
28863;DHT22;15994;51.796;13.006;2022-10-26T10:33:47;14.30;99.90
28863;DHT22;15994;51.796;13.006;2022-10-26T10:36:22;14.40;99.90
28863;DHT22;15994;51.796;13.006;2022-10-26T10:38:50;14.30;99.90
28863;DHT22;15994;51.796;13.006;2022-10-26T10:41:34;14.30;99.90
28863;DHT22;15994;51.796;13.006;2022-10-26T10:44:27;14.30;99.90
28863;DHT22;15994;51.796;13.006;2022-10-26T10:47:04;14.40;99.90
28863;DHT22;15994;51.796;13.006;2022-10-26T10:49:32;14.40;99.90
28863;DHT22;15994;51.796;13.006;2022-10-26T10:51:59;14.50;99.90
28863;DHT22;15994;51.796;13.006;2022-10-26T10:57:22;14.70;99.90
28863;DHT22;15994;51.796;13.006;2022-10-26T11:02:39;14.90;99.90
28863;DHT22;15994;51.796;13.006;2022-10-26T11:07:49;15.00;99.90
28863;DHT22;15994;51.796;13.006;2022-10-26T11:10:17;15.20;99.90
28863;DHT22;15994;51.796;13.006;2022-10-26T11:12:58;15.20;99.90
28863;DHT22;15994;51.796;13.006;2022-10-26T11:15:28;15.30;99.90
28863;DHT22;15994;51.796;13.006;2022-10-26T11:18:25;15.30;99.90
28863;DHT22;15994;51.796;13.006;2022-10-26T11:21:04;15.40;99.90
28863;DHT22;15994;51.796;13.006;2022-10-26T11:23:43;15.40;99.90
28863;DHT22;15994;51.796;13.006;2022-10-26T11:26:30;15.50;99.90
28863;DHT22;15994;51.796;13.006;2022-10-26T11:29:02;15.60;99.90
28863;DHT22;15994;51.796;13.006;2022-10-26T11:31:35;15.60;99.90
28863;DHT22;15994;51.796;13.006;2022-10-26T11:36:53;15.80;99.90
28863;DHT22;15994;51.796;13.006;2022-10-26T11:39:35;15.80;99.90
28863;DHT22;15994;51.796;13.006;2022-10-26T11:42:30;15.80;99.90
28863;DHT22;15994;51.796;13.006;2022-10-26T11:45:22;15.80;99.90
28863;DHT22;15994;51.796;13.006;2022-10-26T11:47:52;16.00;99.90
28863;DHT22;15994;51.796;13.006;2022-10-26T11:50:26;16.00;99.90
28863;DHT22;15994;51.796;13.006;2022-10-26T11:53:00;16.10;99.90
28863;DHT22;15994;51.796;13.006;2022-10-26T11:55:28;16.10;99.90
28863;DHT22;15994;51.796;13.006;2022-10-26T11:57:56;16.10;99.90
28863;DHT22;15994;51.796;13.006;2022-10-26T12:00:25;16.10;99.90
28863;DHT22;15994;51.796;13.006;2022-10-26T12:03:00;16.10;99.90
28863;DHT22;15994;51.796;13.006;2022-10-26T12:05:46;16.20;99.90
28863;DHT22;15994;51.796;13.006;2022-10-26T12:10:48;16.30;99.90
28863;DHT22;15994;51.796;13.006;2022-10-26T12:13:40;16.30;99.90
28863;DHT22;15994;51.796;13.006;2022-10-26T12:19:19;16.60;99.90
28863;DHT22;15994;51.796;13.006;2022-10-26T12:21:48;16.50;99.90
28863;DHT22;15994;51.796;13.006;2022-10-26T12:27:00;16.50;99.90
28863;DHT22;15994;51.796;13.006;2022-10-26T12:29:34;16.60;99.90
28863;DHT22;15994;51.796;13.006;2022-10-26T12:37:29;16.70;99.90
28863;DHT22;15994;51.796;13.006;2022-10-26T12:54:10;16.90;99.90
28863;DHT22;15994;51.796;13.006;2022-10-26T12:59:39;16.90;99.90
28863;DHT22;15994;51.796;13.006;2022-10-26T13:07:35;16.90;99.90
28863;DHT22;15994;51.796;13.006;2022-10-26T13:12:47;17.00;99.90
28863;DHT22;15994;51.796;13.006;2022-10-26T13:18:01;17.00;99.90
28863;DHT22;15994;51.796;13.006;2022-10-26T13:20:34;16.90;99.90
28863;DHT22;15994;51.796;13.006;2022-10-26T13:23:25;16.90;99.90
28863;DHT22;15994;51.796;13.006;2022-10-26T13:26:19;16.90;99.90
28863;DHT22;15994;51.796;13.006;2022-10-26T13:28:52;16.90;99.90
28863;DHT22;15994;51.796;13.006;2022-10-26T13:33:58;16.90;99.90
28863;DHT22;15994;51.796;13.006;2022-10-26T13:39:28;16.80;99.90
28863;DHT22;15994;51.796;13.006;2022-10-26T13:41:54;16.80;99.90
28863;DHT22;15994;51.796;13.006;2022-10-26T13:50:19;16.50;99.90
28863;DHT22;15994;51.796;13.006;2022-10-26T13:52:59;16.40;99.90
28863;DHT22;15994;51.796;13.006;2022-10-26T13:55:37;16.30;99.90
28863;DHT22;15994;51.796;13.006;2022-10-26T13:58:33;16.20;99.90
28863;DHT22;15994;51.796;13.006;2022-10-26T14:03:35;16.10;99.90
28863;DHT22;15994;51.796;13.006;2022-10-26T14:06:26;16.10;99.90
28863;DHT22;15994;51.796;13.006;2022-10-26T14:08:57;16.10;99.90
28863;DHT22;15994;51.796;13.006;2022-10-26T14:11:31;16.10;99.90
28863;DHT22;15994;51.796;13.006;2022-10-26T14:13:59;16.10;99.90
28863;DHT22;15994;51.796;13.006;2022-10-26T14:16:29;16.20;99.90
28863;DHT22;15994;51.796;13.006;2022-10-26T14:18:57;16.50;99.90
28863;DHT22;15994;51.796;13.006;2022-10-26T14:21:23;16.60;99.90
28863;DHT22;15994;51.796;13.006;2022-10-26T14:23:57;16.70;99.90
28863;DHT22;15994;51.796;13.006;2022-10-26T14:26:28;16.80;99.90
28863;DHT22;15994;51.796;13.006;2022-10-26T14:29:00;16.90;99.90
28863;DHT22;15994;51.796;13.006;2022-10-26T14:31:29;16.90;99.90
28863;DHT22;15994;51.796;13.006;2022-10-26T14:33:57;16.90;99.90
28863;DHT22;15994;51.796;13.006;2022-10-26T14:39:39;16.80;99.90
28863;DHT22;15994;51.796;13.006;2022-10-26T14:44:43;16.70;99.90
28863;DHT22;15994;51.796;13.006;2022-10-26T14:47:22;16.60;99.90
28863;DHT22;15994;51.796;13.006;2022-10-26T14:49:49;16.50;99.90
28863;DHT22;15994;51.796;13.006;2022-10-26T14:52:31;16.40;99.90
28863;DHT22;15994;51.796;13.006;2022-10-26T14:55:03;16.30;99.90
28863;DHT22;15994;51.796;13.006;2022-10-26T14:57:35;16.20;99.90
28863;DHT22;15994;51.796;13.006;2022-10-26T15:00:21;16.20;99.90
28863;DHT22;15994;51.796;13.006;2022-10-26T15:02:50;16.10;99.90
28863;DHT22;15994;51.796;13.006;2022-10-26T15:07:51;15.90;99.90
28863;DHT22;15994;51.796;13.006;2022-10-26T15:13:27;15.80;99.90
28863;DHT22;15994;51.796;13.006;2022-10-26T15:16:05;15.80;99.90
28863;DHT22;15994;51.796;13.006;2022-10-26T15:18:34;15.80;99.90
28863;DHT22;15994;51.796;13.006;2022-10-26T15:21:02;15.80;99.90
28863;DHT22;15994;51.796;13.006;2022-10-26T15:23:37;15.80;99.90
28863;DHT22;15994;51.796;13.006;2022-10-26T15:26:04;15.80;99.90
28863;DHT22;15994;51.796;13.006;2022-10-26T15:28:38;15.90;99.90
28863;DHT22;15994;51.796;13.006;2022-10-26T15:33:42;15.90;99.90
28863;DHT22;15994;51.796;13.006;2022-10-26T15:36:20;15.90;99.90
28863;DHT22;15994;51.796;13.006;2022-10-26T15:38:49;15.80;99.90
28863;DHT22;15994;51.796;13.006;2022-10-26T15:43:56;15.80;99.90
28863;DHT22;15994;51.796;13.006;2022-10-26T15:46:28;15.80;99.90
28863;DHT22;15994;51.796;13.006;2022-10-26T15:48:58;15.70;99.90
28863;DHT22;15994;51.796;13.006;2022-10-26T15:51:25;15.60;99.90
28863;DHT22;15994;51.796;13.006;2022-10-26T15:53:52;15.60;99.90
28863;DHT22;15994;51.796;13.006;2022-10-26T15:56:21;15.60;99.90
28863;DHT22;15994;51.796;13.006;2022-10-26T15:58:48;15.50;99.90
28863;DHT22;15994;51.796;13.006;2022-10-26T16:01:17;15.50;99.90
28863;DHT22;15994;51.796;13.006;2022-10-26T16:03:44;15.40;99.90
28863;DHT22;15994;51.796;13.006;2022-10-26T16:06:15;15.40;99.90
28863;DHT22;15994;51.796;13.006;2022-10-26T16:08:50;15.40;99.90
28863;DHT22;15994;51.796;13.006;2022-10-26T16:11:17;15.40;99.90
28863;DHT22;15994;51.796;13.006;2022-10-26T16:13:44;15.30;99.90
28863;DHT22;15994;51.796;13.006;2022-10-26T16:16:12;15.40;99.90
28863;DHT22;15994;51.796;13.006;2022-10-26T16:18:39;15.30;99.90
28863;DHT22;15994;51.796;13.006;2022-10-26T16:21:12;15.30;99.90
28863;DHT22;15994;51.796;13.006;2022-10-26T16:23:40;15.20;99.90
28863;DHT22;15994;51.796;13.006;2022-10-26T16:26:07;15.20;99.90
28863;DHT22;15994;51.796;13.006;2022-10-26T16:28:34;15.10;99.90
28863;DHT22;15994;51.796;13.006;2022-10-26T16:31:03;15.10;99.90
28863;DHT22;15994;51.796;13.006;2022-10-26T16:33:30;15.00;99.90
28863;DHT22;15994;51.796;13.006;2022-10-26T16:35:57;15.00;99.90
28863;DHT22;15994;51.796;13.006;2022-10-26T16:38:25;15.00;99.90
28863;DHT22;15994;51.796;13.006;2022-10-26T16:41:02;15.00;99.90
28863;DHT22;15994;51.796;13.006;2022-10-26T16:43:30;14.90;99.90
28863;DHT22;15994;51.796;13.006;2022-10-26T16:45:58;14.80;99.90
28863;DHT22;15994;51.796;13.006;2022-10-26T16:48:26;14.80;99.90
28863;DHT22;15994;51.796;13.006;2022-10-26T16:50:53;14.80;99.90
28863;DHT22;15994;51.796;13.006;2022-10-26T16:53:19;14.80;99.90
28863;DHT22;15994;51.796;13.006;2022-10-26T16:55:46;14.80;99.90
28863;DHT22;15994;51.796;13.006;2022-10-26T16:58:13;14.80;99.90
28863;DHT22;15994;51.796;13.006;2022-10-26T17:00:39;14.80;99.90
28863;DHT22;15994;51.796;13.006;2022-10-26T17:03:06;14.80;99.90
28863;DHT22;15994;51.796;13.006;2022-10-26T17:05:32;14.80;99.90
28863;DHT22;15994;51.796;13.006;2022-10-26T17:07:59;14.80;99.90
28863;DHT22;15994;51.796;13.006;2022-10-26T17:10:25;14.80;99.90
28863;DHT22;15994;51.796;13.006;2022-10-26T17:12:52;14.80;99.90
28863;DHT22;15994;51.796;13.006;2022-10-26T17:15:18;14.80;99.90
28863;DHT22;15994;51.796;13.006;2022-10-26T17:17:45;14.70;99.90
28863;DHT22;15994;51.796;13.006;2022-10-26T17:20:12;14.70;99.90
28863;DHT22;15994;51.796;13.006;2022-10-26T17:22:38;14.70;99.90
28863;DHT22;15994;51.796;13.006;2022-10-26T17:25:05;14.60;99.90
28863;DHT22;15994;51.796;13.006;2022-10-26T17:27:32;14.60;99.90
28863;DHT22;15994;51.796;13.006;2022-10-26T17:29:58;14.50;99.90
28863;DHT22;15994;51.796;13.006;2022-10-26T17:32:25;14.50;99.90
28863;DHT22;15994;51.796;13.006;2022-10-26T17:34:51;14.50;99.90
28863;DHT22;15994;51.796;13.006;2022-10-26T17:37:18;14.50;99.90
28863;DHT22;15994;51.796;13.006;2022-10-26T17:39:45;14.40;99.90
28863;DHT22;15994;51.796;13.006;2022-10-26T17:42:11;14.40;99.90
28863;DHT22;15994;51.796;13.006;2022-10-26T17:44:38;14.40;99.90
28863;DHT22;15994;51.796;13.006;2022-10-26T17:47:04;14.40;99.90
28863;DHT22;15994;51.796;13.006;2022-10-26T17:49:31;14.30;99.90
28863;DHT22;15994;51.796;13.006;2022-10-26T17:51:57;14.30;99.90